createdAt,value
2017-11-19T00:00:14.289Z,1005.56
2017-11-19T00:01:14.197Z,1005.53
2017-11-19T00:02:14.126Z,1005.55
2017-11-19T00:03:14.023Z,1005.50
2017-11-19T00:04:13.968Z,1005.51
2017-11-19T00:05:13.842Z,1005.51
2017-11-19T00:06:13.762Z,1005.47
2017-11-19T00:07:13.678Z,1005.54
2017-11-19T00:08:13.609Z,1005.57
2017-11-19T00:09:13.488Z,1005.43
2017-11-19T00:10:13.407Z,1005.44
2017-11-19T00:11:13.309Z,1005.43
2017-11-19T00:12:13.233Z,1005.35
2017-11-19T00:13:13.129Z,1005.37
2017-11-19T00:14:13.032Z,1005.32
2017-11-19T00:15:12.948Z,1005.28
2017-11-19T00:16:12.870Z,1005.29
2017-11-19T00:17:12.773Z,1005.21
2017-11-19T00:18:12.675Z,1005.13
2017-11-19T00:19:12.585Z,1005.20
2017-11-19T00:20:12.493Z,1005.20
2017-11-19T00:21:12.407Z,1005.15
2017-11-19T00:22:12.312Z,1005.19
2017-11-19T00:23:12.235Z,1005.22
2017-11-19T00:24:12.139Z,1005.12
2017-11-19T00:25:12.046Z,1005.00
2017-11-19T00:26:11.953Z,1005.08
2017-11-19T00:27:11.877Z,1005.00
2017-11-19T00:28:11.777Z,1005.08
2017-11-19T00:29:11.690Z,1004.94
2017-11-19T00:30:11.597Z,1005.15
2017-11-19T00:31:11.506Z,1005.10
2017-11-19T00:32:11.435Z,1005.09
2017-11-19T00:33:11.319Z,1005.16
2017-11-19T00:34:11.230Z,1005.16
2017-11-19T00:35:11.142Z,1005.13
2017-11-19T00:36:11.046Z,1005.07
2017-11-19T00:37:10.960Z,1005.01
2017-11-19T00:38:10.870Z,1005.05
2017-11-19T00:39:10.792Z,1004.95
2017-11-19T00:40:10.699Z,1004.93
2017-11-19T00:41:10.594Z,1005.01
2017-11-19T00:42:10.520Z,1004.92
2017-11-19T00:43:10.415Z,1004.86
2017-11-19T00:44:10.334Z,1004.76
2017-11-19T00:45:10.244Z,1004.79
2017-11-19T00:46:10.171Z,1004.76
2017-11-19T00:47:10.064Z,1004.86
2017-11-19T00:48:09.973Z,1004.80
2017-11-19T00:49:09.889Z,1004.80
2017-11-19T00:50:09.794Z,1004.69
2017-11-19T00:51:09.699Z,1004.67
2017-11-19T00:52:09.608Z,1004.70
2017-11-19T00:53:09.520Z,1004.66
2017-11-19T00:54:09.430Z,1004.62
2017-11-19T00:55:09.342Z,1004.64
2017-11-19T00:56:09.247Z,1004.77
2017-11-19T00:57:09.152Z,1004.69
2017-11-19T00:58:09.065Z,1004.76
2017-11-19T00:59:08.982Z,1004.76
2017-11-19T01:00:08.889Z,1004.64
2017-11-19T01:01:08.798Z,1004.68
2017-11-19T01:02:08.709Z,1004.70
2017-11-19T01:03:08.613Z,1004.73
2017-11-19T01:04:08.521Z,1004.70
2017-11-19T01:05:08.443Z,1004.66
2017-11-19T01:06:08.340Z,1004.67
2017-11-19T01:07:08.267Z,1004.63
2017-11-19T01:08:08.167Z,1004.58
2017-11-19T01:09:08.085Z,1004.48
2017-11-19T01:10:07.989Z,1004.46
2017-11-19T01:11:07.890Z,1004.34
2017-11-19T01:12:07.804Z,1004.45
2017-11-19T01:13:07.706Z,1004.39
2017-11-19T01:14:07.621Z,1004.31
2017-11-19T01:15:07.537Z,1004.37
2017-11-19T01:16:07.433Z,1004.28
2017-11-19T01:17:07.351Z,1004.32
2017-11-19T01:18:07.268Z,1004.23
2017-11-19T01:19:07.163Z,1004.30
2017-11-19T01:20:07.074Z,1004.30
2017-11-19T01:21:06.991Z,1004.26
2017-11-19T01:22:06.900Z,1004.18
2017-11-19T01:23:06.803Z,1004.06
2017-11-19T01:24:06.731Z,1004.08
2017-11-19T01:25:06.622Z,1004.11
2017-11-19T01:26:06.532Z,1004.05
2017-11-19T01:27:06.454Z,1004.09
2017-11-19T01:28:06.364Z,1004.18
2017-11-19T01:29:06.282Z,1004.36
2017-11-19T01:30:06.175Z,1004.47
2017-11-19T01:31:06.086Z,1004.57
2017-11-19T01:32:05.995Z,1004.55
2017-11-19T01:33:05.900Z,1004.48
2017-11-19T01:34:05.810Z,1004.46
2017-11-19T01:35:05.719Z,1004.45
2017-11-19T01:36:05.627Z,1004.52
2017-11-19T01:37:05.552Z,1004.55
2017-11-19T01:38:05.455Z,1004.53
2017-11-19T01:39:05.367Z,1004.52
2017-11-19T01:40:05.266Z,1004.32
2017-11-19T01:41:05.186Z,1004.30
2017-11-19T01:42:05.115Z,1004.20
2017-11-19T01:43:04.999Z,1004.17
2017-11-19T01:44:04.923Z,1004.13
2017-11-19T01:45:04.825Z,1004.13
2017-11-19T01:46:04.754Z,1004.33
2017-11-19T01:47:04.647Z,1004.26
2017-11-19T01:48:04.551Z,1004.34
2017-11-19T01:49:04.459Z,1004.26
2017-11-19T01:50:04.372Z,1004.30
2017-11-19T01:51:04.277Z,1004.25
2017-11-19T01:52:04.197Z,1004.12
2017-11-19T01:53:04.098Z,1004.08
2017-11-19T01:54:04.010Z,1004.21
2017-11-19T01:55:03.916Z,1004.20
2017-11-19T01:56:03.826Z,1004.11
2017-11-19T01:57:03.732Z,1004.16
2017-11-19T01:58:03.681Z,1004.13
2017-11-19T01:59:03.596Z,1004.14
2017-11-19T02:00:03.474Z,1004.14
2017-11-19T02:01:03.381Z,1004.13
2017-11-19T02:02:03.294Z,1004.11
2017-11-19T02:03:03.194Z,1004.13
2017-11-19T02:04:03.116Z,1004.07
2017-11-19T02:05:03.020Z,1004.05
2017-11-19T02:06:02.937Z,1004.08
2017-11-19T02:07:02.848Z,1004.03
2017-11-19T02:08:02.952Z,1004.03
2017-11-19T02:09:02.665Z,1004.07
2017-11-19T02:10:02.579Z,1003.95
2017-11-19T02:11:02.476Z,1003.96
2017-11-19T02:12:02.385Z,1004.00
2017-11-19T02:13:02.299Z,1003.94
2017-11-19T02:14:02.203Z,1003.92
2017-11-19T02:15:02.137Z,1003.88
2017-11-19T02:16:02.037Z,1003.95
2017-11-19T02:17:01.946Z,1003.92
2017-11-19T02:18:01.851Z,1003.87
2017-11-19T02:19:01.757Z,1003.77
2017-11-19T02:20:01.665Z,1003.79
2017-11-19T02:21:01.571Z,1003.78
2017-11-19T02:22:01.487Z,1003.78
2017-11-19T02:23:01.395Z,1003.78
2017-11-19T02:24:01.315Z,1003.76
2017-11-19T02:25:01.214Z,1003.84
2017-11-19T02:26:01.127Z,1003.87
2017-11-19T02:27:01.045Z,1003.75
2017-11-19T02:28:00.956Z,1003.79
2017-11-19T02:29:00.856Z,1003.80
2017-11-19T02:30:00.763Z,1003.75
2017-11-19T02:31:00.673Z,1003.66
2017-11-19T02:32:00.584Z,1003.66
2017-11-19T02:33:00.495Z,1003.65
2017-11-19T02:34:00.411Z,1003.76
2017-11-19T02:35:00.316Z,1003.77
2017-11-19T02:36:00.232Z,1003.78
2017-11-19T02:37:00.135Z,1003.82
2017-11-19T02:38:00.101Z,1003.83
2017-11-19T02:38:59.967Z,1003.88
2017-11-19T02:39:59.864Z,1003.87
2017-11-19T02:40:59.791Z,1003.86
2017-11-19T02:41:59.689Z,1003.95
2017-11-19T02:42:59.591Z,1003.80
2017-11-19T02:43:59.505Z,1003.72
2017-11-19T02:44:59.416Z,1003.79
2017-11-19T02:45:59.327Z,1003.77
2017-11-19T02:46:59.239Z,1003.69
2017-11-19T02:47:59.146Z,1003.66
2017-11-19T02:48:59.055Z,1003.69
2017-11-19T02:49:58.966Z,1003.63
2017-11-19T02:50:58.875Z,1003.58
2017-11-19T02:51:58.783Z,1003.70
2017-11-19T02:52:58.703Z,1003.60
2017-11-19T02:53:58.605Z,1003.60
2017-11-19T02:54:58.514Z,1003.65
2017-11-19T02:55:58.432Z,1003.70
2017-11-19T02:56:58.351Z,1003.66
2017-11-19T02:57:58.252Z,1003.67
2017-11-19T02:58:58.154Z,1003.69
2017-11-19T02:59:58.072Z,1003.62
2017-11-19T03:00:57.977Z,1003.64
2017-11-19T03:01:57.896Z,1003.65
2017-11-19T03:02:57.800Z,1003.64
2017-11-19T03:03:57.713Z,1003.52
2017-11-19T03:04:57.642Z,1003.43
2017-11-19T03:05:57.527Z,1003.48
2017-11-19T03:06:57.439Z,1003.63
2017-11-19T03:07:57.350Z,1003.52
2017-11-19T03:08:57.256Z,1003.45
2017-11-19T03:09:57.170Z,1003.51
2017-11-19T03:10:57.077Z,1003.51
2017-11-19T03:11:56.988Z,1003.51
2017-11-19T03:12:56.897Z,1003.49
2017-11-19T03:13:56.803Z,1003.47
2017-11-19T03:14:56.720Z,1003.40
2017-11-19T03:15:56.647Z,1003.45
2017-11-19T03:16:56.540Z,1003.47
2017-11-19T03:17:56.448Z,1003.39
2017-11-19T03:18:56.360Z,1003.46
2017-11-19T03:19:56.277Z,1003.47
2017-11-19T03:20:56.184Z,1003.47
2017-11-19T03:21:56.088Z,1003.44
2017-11-19T03:22:55.998Z,1003.39
2017-11-19T03:23:55.916Z,1003.44
2017-11-19T03:24:55.823Z,1003.43
2017-11-19T03:25:55.731Z,1003.33
2017-11-19T03:26:55.635Z,1003.35
2017-11-19T03:27:55.548Z,1003.32
2017-11-19T03:28:55.451Z,1003.32
2017-11-19T03:29:55.368Z,1003.30
2017-11-19T03:30:55.296Z,1003.40
2017-11-19T03:31:55.191Z,1003.35
2017-11-19T03:32:55.103Z,1003.38
2017-11-19T03:33:55.014Z,1003.44
2017-11-19T03:34:54.918Z,1003.54
2017-11-19T03:35:54.833Z,1003.49
2017-11-19T03:36:54.745Z,1003.61
2017-11-19T03:37:54.643Z,1003.58
2017-11-19T03:38:54.558Z,1003.51
2017-11-19T03:39:54.472Z,1003.56
2017-11-19T03:40:54.376Z,1003.52
2017-11-19T03:41:54.295Z,1003.53
2017-11-19T03:42:54.195Z,1003.55
2017-11-19T03:43:54.108Z,1003.61
2017-11-19T03:44:54.016Z,1003.60
2017-11-19T03:45:53.930Z,1003.64
2017-11-19T03:46:53.836Z,1003.62
2017-11-19T03:47:53.744Z,1003.58
2017-11-19T03:48:53.664Z,1003.63
2017-11-19T03:49:53.591Z,1003.60
2017-11-19T03:50:53.485Z,1003.66
2017-11-19T03:51:53.391Z,1003.72
2017-11-19T03:52:53.316Z,1003.62
2017-11-19T03:53:53.205Z,1003.63
2017-11-19T03:54:53.112Z,1003.67
2017-11-19T03:55:53.041Z,1003.69
2017-11-19T03:56:52.954Z,1003.65
2017-11-19T03:57:52.852Z,1003.70
2017-11-19T03:58:52.753Z,1003.64
2017-11-19T03:59:52.671Z,1003.58
2017-11-19T04:00:52.580Z,1003.63
2017-11-19T04:01:52.487Z,1003.66
2017-11-19T04:02:52.409Z,1003.61
2017-11-19T04:03:52.326Z,1003.67
2017-11-19T04:04:52.219Z,1003.63
2017-11-19T04:05:52.133Z,1003.66
2017-11-19T04:06:52.042Z,1003.61
2017-11-19T04:07:51.959Z,1003.62
2017-11-19T04:08:51.866Z,1003.59
2017-11-19T04:09:51.779Z,1003.57
2017-11-19T04:10:51.685Z,1003.70
2017-11-19T04:11:51.588Z,1003.55
2017-11-19T04:12:51.503Z,1003.62
2017-11-19T04:13:51.420Z,1003.57
2017-11-19T04:14:51.334Z,1003.56
2017-11-19T04:15:51.235Z,1003.51
2017-11-19T04:16:51.147Z,1003.48
2017-11-19T04:17:51.071Z,1003.36
2017-11-19T04:18:50.968Z,1003.26
2017-11-19T04:19:50.907Z,1003.28
2017-11-19T04:20:50.790Z,1003.34
2017-11-19T04:21:50.701Z,1003.32
2017-11-19T04:22:50.618Z,1003.32
2017-11-19T04:23:50.518Z,1003.37
2017-11-19T04:24:50.428Z,1003.31
2017-11-19T04:25:50.338Z,1003.35
2017-11-19T04:26:50.251Z,1003.29
2017-11-19T04:27:50.153Z,1003.31
2017-11-19T04:28:50.063Z,1003.32
2017-11-19T04:29:49.975Z,1003.28
2017-11-19T04:30:49.888Z,1003.28
2017-11-19T04:31:49.800Z,1003.22
2017-11-19T04:32:49.715Z,1003.16
2017-11-19T04:33:49.624Z,1003.14
2017-11-19T04:34:49.527Z,1003.11
2017-11-19T04:35:49.436Z,1003.07
2017-11-19T04:36:49.346Z,1003.12
2017-11-19T04:37:49.251Z,1003.15
2017-11-19T04:38:49.169Z,1003.17
2017-11-19T04:39:49.090Z,1003.15
2017-11-19T04:40:48.985Z,1003.13
2017-11-19T04:41:49.066Z,1003.10
2017-11-19T04:42:48.834Z,1003.11
2017-11-19T04:43:48.717Z,1003.15
2017-11-19T04:44:48.622Z,1003.08
2017-11-19T04:45:48.532Z,1003.12
2017-11-19T04:46:48.445Z,1003.04
2017-11-19T04:47:48.347Z,1003.06
2017-11-19T04:48:48.261Z,1003.02
2017-11-19T04:49:48.174Z,1003.13
2017-11-19T04:50:48.080Z,1003.15
2017-11-19T04:51:48.005Z,1003.21
2017-11-19T04:52:47.905Z,1003.30
2017-11-19T04:53:47.816Z,1003.33
2017-11-19T04:54:47.723Z,1003.38
2017-11-19T04:55:47.640Z,1003.37
2017-11-19T04:56:47.542Z,1003.40
2017-11-19T04:57:47.467Z,1003.42
2017-11-19T04:58:47.364Z,1003.43
2017-11-19T04:59:47.275Z,1003.39
2017-11-19T05:00:47.183Z,1003.41
2017-11-19T05:01:47.086Z,1003.46
2017-11-19T05:02:47.004Z,1003.41
2017-11-19T05:03:46.921Z,1003.37
2017-11-19T05:04:46.822Z,1003.38
2017-11-19T05:05:46.729Z,1003.35
2017-11-19T05:06:46.639Z,1003.43
2017-11-19T05:07:46.552Z,1003.41
2017-11-19T05:08:46.455Z,1003.48
2017-11-19T05:09:46.365Z,1003.31
2017-11-19T05:10:46.291Z,1003.41
2017-11-19T05:11:46.191Z,1003.33
2017-11-19T05:12:46.109Z,1003.33
2017-11-19T05:13:46.013Z,1003.26
2017-11-19T05:14:45.916Z,1003.27
2017-11-19T05:15:45.825Z,1003.24
2017-11-19T05:16:45.754Z,1003.31
2017-11-19T05:17:45.658Z,1003.28
2017-11-19T05:18:45.557Z,1003.30
2017-11-19T05:19:45.462Z,1003.23
2017-11-19T05:20:45.376Z,1003.28
2017-11-19T05:21:45.293Z,1003.30
2017-11-19T05:22:45.204Z,1003.20
2017-11-19T05:23:45.108Z,1003.20
2017-11-19T05:24:45.019Z,1003.21
2017-11-19T05:25:44.930Z,1003.12
2017-11-19T05:26:44.842Z,1003.11
2017-11-19T05:27:44.741Z,1003.13
2017-11-19T05:28:44.654Z,1003.05
2017-11-19T05:29:44.604Z,1003.05
2017-11-19T05:30:44.484Z,1003.14
2017-11-19T05:31:44.400Z,1003.17
2017-11-19T05:32:44.296Z,1003.23
2017-11-19T05:33:44.207Z,1003.25
2017-11-19T05:34:44.112Z,1003.28
2017-11-19T05:35:44.029Z,1003.29
2017-11-19T05:36:43.939Z,1003.27
2017-11-19T05:37:43.845Z,1003.38
2017-11-19T05:38:43.753Z,1003.31
2017-11-19T05:39:43.659Z,1003.36
2017-11-19T05:40:43.576Z,1003.37
2017-11-19T05:41:43.488Z,1003.39
2017-11-19T05:42:43.401Z,1003.48
2017-11-19T05:43:43.312Z,1003.48
2017-11-19T05:44:43.238Z,1003.51
2017-11-19T05:45:43.138Z,1003.49
2017-11-19T05:46:43.042Z,1003.45
2017-11-19T05:47:42.947Z,1003.46
2017-11-19T05:48:42.856Z,1003.37
2017-11-19T05:49:42.771Z,1003.34
2017-11-19T05:50:42.709Z,1003.40
2017-11-19T05:51:42.592Z,1003.41
2017-11-19T05:52:42.513Z,1003.45
2017-11-19T05:53:42.409Z,1003.54
2017-11-19T05:54:42.325Z,1003.63
2017-11-19T05:55:42.228Z,1003.64
2017-11-19T05:56:42.140Z,1003.62
2017-11-19T05:57:42.058Z,1003.70
2017-11-19T05:58:41.977Z,1003.64
2017-11-19T05:59:41.872Z,1003.66
2017-11-19T06:00:41.789Z,1003.65
2017-11-19T06:01:41.693Z,1003.73
2017-11-19T06:02:41.597Z,1003.76
2017-11-19T06:03:41.513Z,1003.76
2017-11-19T06:04:41.425Z,1003.82
2017-11-19T06:05:41.332Z,1003.80
2017-11-19T06:06:41.254Z,1003.83
2017-11-19T06:07:41.163Z,1003.82
2017-11-19T06:08:41.077Z,1003.94
2017-11-19T06:09:41.004Z,1004.08
2017-11-19T06:10:40.903Z,1004.11
2017-11-19T06:11:40.803Z,1004.03
2017-11-19T06:12:40.715Z,1003.96
2017-11-19T06:13:40.636Z,1004.04
2017-11-19T06:14:40.546Z,1003.93
2017-11-19T06:15:40.456Z,1003.94
2017-11-19T06:16:40.363Z,1003.95
2017-11-19T06:17:40.271Z,1004.04
2017-11-19T06:18:40.177Z,1004.16
2017-11-19T06:19:40.094Z,1004.29
2017-11-19T06:20:40.008Z,1004.40
2017-11-19T06:21:39.912Z,1004.39
2017-11-19T06:22:39.832Z,1004.36
2017-11-19T06:23:39.734Z,1004.38
2017-11-19T06:24:39.671Z,1004.42
2017-11-19T06:25:39.557Z,1004.45
2017-11-19T06:26:39.465Z,1004.41
2017-11-19T06:27:39.400Z,1004.45
2017-11-19T06:28:39.295Z,1004.34
2017-11-19T06:29:39.204Z,1004.32
2017-11-19T06:30:39.107Z,1004.36
2017-11-19T06:31:39.023Z,1004.43
2017-11-19T06:32:38.932Z,1004.44
2017-11-19T06:33:38.848Z,1004.43
2017-11-19T06:34:38.757Z,1004.52
2017-11-19T06:35:38.677Z,1004.47
2017-11-19T06:36:38.585Z,1004.50
2017-11-19T06:37:38.488Z,1004.55
2017-11-19T06:38:38.412Z,1004.55
2017-11-19T06:39:38.315Z,1004.55
2017-11-19T06:40:38.219Z,1004.57
2017-11-19T06:41:38.148Z,1004.63
2017-11-19T06:42:38.048Z,1004.57
2017-11-19T06:43:37.954Z,1004.55
2017-11-19T06:44:37.871Z,1004.57
2017-11-19T06:45:37.782Z,1004.59
2017-11-19T06:46:37.689Z,1004.56
2017-11-19T06:47:37.644Z,1004.55
2017-11-19T06:48:37.514Z,1004.57
2017-11-19T06:49:37.428Z,1004.55
2017-11-19T06:50:37.359Z,1004.53
2017-11-19T06:51:37.263Z,1004.51
2017-11-19T06:52:37.170Z,1004.56
2017-11-19T06:53:37.076Z,1004.50
2017-11-19T06:54:36.991Z,1004.56
2017-11-19T06:55:36.895Z,1004.56
2017-11-19T06:56:36.817Z,1004.55
2017-11-19T06:57:36.719Z,1004.52
2017-11-19T06:58:36.628Z,1004.49
2017-11-19T06:59:36.542Z,1004.53
2017-11-19T07:00:36.457Z,1004.51
2017-11-19T07:01:36.389Z,1004.50
2017-11-19T07:02:36.276Z,1004.53
2017-11-19T07:03:36.197Z,1004.50
2017-11-19T07:04:36.098Z,1004.60
2017-11-19T07:05:36.021Z,1004.56
2017-11-19T07:06:35.919Z,1004.62
2017-11-19T07:07:35.840Z,1004.56
2017-11-19T07:08:35.748Z,1004.63
2017-11-19T07:09:35.658Z,1004.52
2017-11-19T07:10:35.576Z,1004.64
2017-11-19T07:11:35.695Z,1004.68
2017-11-19T07:12:35.391Z,1004.75
2017-11-19T07:13:35.300Z,1004.85
2017-11-19T07:14:35.207Z,1004.88
2017-11-19T07:15:35.128Z,1004.99
2017-11-19T07:16:35.040Z,1004.99
2017-11-19T07:17:34.941Z,1005.08
2017-11-19T07:18:34.855Z,1005.17
2017-11-19T07:19:34.771Z,1005.12
2017-11-19T07:20:34.686Z,1005.16
2017-11-19T07:21:34.593Z,1005.15
2017-11-19T07:22:34.531Z,1005.20
2017-11-19T07:23:34.416Z,1005.23
2017-11-19T07:24:34.331Z,1005.24
2017-11-19T07:25:34.245Z,1005.24
2017-11-19T07:26:34.157Z,1005.26
2017-11-19T07:27:34.060Z,1005.29
2017-11-19T07:28:33.976Z,1005.29
2017-11-19T07:29:33.884Z,1005.32
2017-11-19T07:30:33.804Z,1005.31
2017-11-19T07:31:33.707Z,1005.36
2017-11-19T07:32:33.623Z,1005.40
2017-11-19T07:33:33.532Z,1005.52
2017-11-19T07:34:33.443Z,1005.39
2017-11-19T07:35:33.368Z,1005.41
2017-11-19T07:36:33.276Z,1005.50
2017-11-19T07:37:33.191Z,1005.51
2017-11-19T07:38:33.101Z,1005.35
2017-11-19T07:39:33.015Z,1005.25
2017-11-19T07:40:32.912Z,1005.28
2017-11-19T07:41:32.828Z,1005.32
2017-11-19T07:42:32.740Z,1005.32
2017-11-19T07:43:32.659Z,1005.30
2017-11-19T07:44:32.571Z,1005.25
2017-11-19T07:45:32.470Z,1005.26
2017-11-19T07:46:32.406Z,1005.26
2017-11-19T07:47:32.301Z,1005.27
2017-11-19T07:48:32.215Z,1005.31
2017-11-19T07:49:32.125Z,1005.28
2017-11-19T07:50:32.040Z,1005.22
2017-11-19T07:51:31.952Z,1005.19
2017-11-19T07:52:31.860Z,1005.21
2017-11-19T07:53:31.769Z,1005.21
2017-11-19T07:54:31.687Z,1005.24
2017-11-19T07:55:31.594Z,1005.27
2017-11-19T07:56:31.509Z,1005.25
2017-11-19T07:57:31.506Z,1005.31
2017-11-19T07:58:31.370Z,1005.29
2017-11-19T07:59:31.235Z,1005.31
2017-11-19T08:00:31.167Z,1005.30
2017-11-19T08:01:31.081Z,1005.36
2017-11-19T08:02:30.988Z,1005.42
2017-11-19T08:03:30.896Z,1005.45
2017-11-19T08:04:30.806Z,1005.42
2017-11-19T08:05:30.717Z,1005.46
2017-11-19T08:06:30.630Z,1005.47
2017-11-19T08:07:30.531Z,1005.46
2017-11-19T08:08:30.461Z,1005.44
2017-11-19T08:09:30.358Z,1005.48
2017-11-19T08:10:30.283Z,1005.48
2017-11-19T08:11:30.201Z,1005.52
2017-11-19T08:12:30.105Z,1005.55
2017-11-19T08:13:30.016Z,1005.52
2017-11-19T08:14:29.922Z,1005.53
2017-11-19T08:15:29.838Z,1005.58
2017-11-19T08:16:29.756Z,1005.58
2017-11-19T08:17:29.670Z,1005.57
2017-11-19T08:18:29.591Z,1005.59
2017-11-19T08:19:29.496Z,1005.62
2017-11-19T08:20:29.404Z,1005.61
2017-11-19T08:21:29.314Z,1005.68
2017-11-19T08:22:29.239Z,1005.73
2017-11-19T08:23:29.149Z,1005.71
2017-11-19T08:24:29.063Z,1005.75
2017-11-19T08:25:28.977Z,1005.79
2017-11-19T08:26:28.883Z,1005.73
2017-11-19T08:27:28.809Z,1005.74
2017-11-19T08:28:28.707Z,1005.74
2017-11-19T08:29:28.629Z,1005.78
2017-11-19T08:30:28.532Z,1005.80
2017-11-19T08:31:28.453Z,1005.86
2017-11-19T08:32:28.358Z,1005.85
2017-11-19T08:33:28.267Z,1005.83
2017-11-19T08:34:28.183Z,1005.89
2017-11-19T08:35:28.098Z,1005.91
2017-11-19T08:36:28.006Z,1005.94
2017-11-19T08:37:27.928Z,1005.94
2017-11-19T08:38:27.838Z,1005.93
2017-11-19T08:39:27.751Z,1005.95
2017-11-19T08:40:27.669Z,1005.92
2017-11-19T08:41:27.591Z,1005.95
2017-11-19T08:42:27.492Z,1005.96
2017-11-19T08:43:27.402Z,1005.97
2017-11-19T08:44:27.327Z,1005.96
2017-11-19T08:45:27.232Z,1006.01
2017-11-19T08:46:27.141Z,1005.97
2017-11-19T08:47:27.059Z,1006.02
2017-11-19T08:48:26.968Z,1006.02
2017-11-19T08:49:26.880Z,1006.03
2017-11-19T08:50:26.798Z,1006.05
2017-11-19T08:51:26.708Z,1006.07
2017-11-19T08:52:26.623Z,1006.08
2017-11-19T08:53:26.540Z,1006.09
2017-11-19T08:54:26.451Z,1006.12
2017-11-19T08:55:26.351Z,1006.12
2017-11-19T08:56:26.278Z,1006.16
2017-11-19T08:57:26.195Z,1006.18
2017-11-19T08:58:26.115Z,1006.21
2017-11-19T08:59:26.034Z,1006.19
2017-11-19T09:00:25.921Z,1006.22
2017-11-19T09:01:25.837Z,1006.22
2017-11-19T09:02:25.753Z,1006.26
2017-11-19T09:03:25.682Z,1006.28
2017-11-19T09:04:25.580Z,1006.31
2017-11-19T09:05:25.489Z,1006.28
2017-11-19T09:06:25.401Z,1006.32
2017-11-19T09:07:25.308Z,1006.32
2017-11-19T09:08:25.233Z,1006.40
2017-11-19T09:09:25.140Z,1006.39
2017-11-19T09:10:25.052Z,1006.44
2017-11-19T09:11:24.971Z,1006.47
2017-11-19T09:12:24.919Z,1006.50
2017-11-19T09:13:24.790Z,1006.54
2017-11-19T09:14:24.710Z,1006.59
2017-11-19T09:15:24.623Z,1006.83
2017-11-19T09:16:24.538Z,1006.72
2017-11-19T09:17:24.446Z,1006.78
2017-11-19T09:18:24.353Z,1006.86
2017-11-19T09:19:24.268Z,1006.82
2017-11-19T09:20:24.186Z,1006.82
2017-11-19T09:21:24.107Z,1006.80
2017-11-19T09:22:24.020Z,1006.87
2017-11-19T09:23:23.927Z,1007.90
2017-11-19T09:24:23.846Z,1007.98
2017-11-19T09:25:23.767Z,1008.02
2017-11-19T09:26:23.683Z,1008.12
2017-11-19T09:27:23.596Z,1008.08
2017-11-19T09:28:23.505Z,1008.15
2017-11-19T09:29:23.427Z,1008.14
2017-11-19T09:30:23.347Z,1008.23
2017-11-19T09:31:23.369Z,1008.31
2017-11-19T09:32:23.201Z,1008.34
2017-11-19T09:33:23.110Z,1008.36
2017-11-19T09:34:23.036Z,1008.43
2017-11-19T09:35:22.942Z,1008.46
2017-11-19T09:36:22.868Z,1008.47
2017-11-19T09:37:22.785Z,1008.47
2017-11-19T09:38:22.710Z,1008.55
2017-11-19T09:39:22.628Z,1008.53
2017-11-19T09:40:22.548Z,1008.69
2017-11-19T09:41:22.494Z,1008.71
2017-11-19T09:42:22.392Z,1008.79
2017-11-19T09:43:22.344Z,1008.84
2017-11-19T09:44:22.239Z,1008.94
2017-11-19T09:45:22.175Z,1009.01
2017-11-19T09:46:22.083Z,1009.09
2017-11-19T09:47:22.014Z,1009.07
2017-11-19T09:48:21.932Z,1009.26
2017-11-19T09:49:21.852Z,1008.15
2017-11-19T09:50:21.813Z,1009.36
2017-11-19T09:51:21.734Z,1009.48
2017-11-19T09:52:21.629Z,1009.64
2017-11-19T09:53:21.561Z,1009.62
2017-11-19T09:54:21.478Z,1009.98
2017-11-19T09:55:21.431Z,1010.11
2017-11-19T09:56:21.323Z,1010.39
2017-11-19T09:57:21.305Z,1010.68
2017-11-19T09:58:21.175Z,1010.89
2017-11-19T09:59:21.108Z,1011.06
2017-11-19T10:00:21.041Z,1011.34
2017-11-19T10:01:20.952Z,1011.44
2017-11-19T10:02:20.874Z,1011.61
2017-11-19T10:03:20.798Z,1011.85
2017-11-19T10:04:20.745Z,1012.01
2017-11-19T10:05:20.649Z,1008.14
2017-11-19T10:06:20.577Z,1012.59
2017-11-19T10:07:20.501Z,1012.77
2017-11-19T10:08:20.424Z,1012.92
2017-11-19T10:09:20.355Z,1012.97
2017-11-19T10:10:20.284Z,1013.03
2017-11-19T10:11:20.202Z,1011.68
2017-11-19T10:12:20.142Z,1013.59
2017-11-19T10:13:20.054Z,1013.84
2017-11-19T10:14:19.978Z,1013.30
2017-11-19T10:15:19.909Z,1007.53
2017-11-19T10:16:19.830Z,1007.74
2017-11-19T10:17:19.765Z,1014.30
2017-11-19T10:18:19.681Z,1014.22
2017-11-19T10:19:19.605Z,1008.06
2017-11-19T10:20:19.526Z,1014.52
2017-11-19T10:21:19.455Z,1014.91
2017-11-19T10:22:19.376Z,1010.07
2017-11-19T10:23:19.315Z,1010.78
2017-11-19T10:24:19.227Z,1014.69
2017-11-19T10:25:19.177Z,1013.94
2017-11-19T10:26:19.082Z,1007.98
2017-11-19T10:27:19.001Z,1007.40
2017-11-19T10:28:18.954Z,1007.35
2017-11-19T10:29:18.853Z,1007.19
2017-11-19T10:30:18.782Z,1007.09
2017-11-19T10:31:18.704Z,1007.12
2017-11-19T10:32:18.646Z,1007.10
2017-11-19T10:33:18.540Z,1007.02
2017-11-19T10:34:18.461Z,1007.72
2017-11-19T10:35:18.380Z,1007.23
2017-11-19T10:36:18.309Z,1007.21
2017-11-19T10:37:18.270Z,1007.14
2017-11-19T10:38:18.138Z,1007.12
2017-11-19T10:39:18.057Z,1007.63
2017-11-19T10:40:18.002Z,1008.53
2017-11-19T10:41:17.914Z,1007.37
2017-11-19T10:42:17.819Z,1007.21
2017-11-19T10:43:17.732Z,1008.55
2017-11-19T10:44:17.655Z,1007.27
2017-11-19T10:45:17.575Z,1007.19
2017-11-19T10:46:17.513Z,1007.14
2017-11-19T10:47:17.411Z,1007.13
2017-11-19T10:48:17.336Z,1007.24
2017-11-19T10:49:17.258Z,1007.23
2017-11-19T10:50:17.171Z,1007.36
2017-11-19T10:51:17.091Z,1007.17
2017-11-19T10:52:17.006Z,1011.32
2017-11-19T10:53:16.925Z,1008.56
2017-11-19T10:54:16.864Z,1007.28
2017-11-19T10:55:16.771Z,1007.17
2017-11-19T10:56:16.686Z,1007.17
2017-11-19T10:57:16.615Z,1008.28
2017-11-19T10:58:16.523Z,1007.50
2017-11-19T10:59:16.447Z,1007.42
2017-11-19T11:00:16.358Z,1007.26
2017-11-19T11:01:16.284Z,1007.85
2017-11-19T11:02:16.216Z,1007.20
2017-11-19T11:03:16.132Z,1007.42
2017-11-19T11:04:16.042Z,1007.75
2017-11-19T11:05:15.967Z,1007.46
2017-11-19T11:06:15.894Z,1007.83
2017-11-19T11:07:15.800Z,1009.16
2017-11-19T11:08:15.731Z,1008.40
2017-11-19T11:09:15.652Z,1007.41
2017-11-19T11:10:15.564Z,1009.27
2017-11-19T11:11:15.501Z,1007.95
2017-11-19T11:12:15.401Z,1009.30
2017-11-19T11:13:15.324Z,1009.26
2017-11-19T11:14:15.243Z,1009.27
2017-11-19T11:15:15.172Z,1009.08
2017-11-19T11:16:15.094Z,1008.91
2017-11-19T11:17:15.001Z,1009.11
2017-11-19T11:18:14.928Z,1007.47
2017-11-19T11:19:14.851Z,1007.95
2017-11-19T11:20:14.774Z,1007.55
2017-11-19T11:21:14.707Z,1008.80
2017-11-19T11:22:14.636Z,1007.44
2017-11-19T11:23:14.538Z,1007.39
2017-11-19T11:24:14.469Z,1008.36
2017-11-19T11:25:14.381Z,1007.52
2017-11-19T11:26:14.305Z,1007.57
2017-11-19T11:27:14.235Z,1007.85
2017-11-19T11:28:14.146Z,1007.72
2017-11-19T11:29:14.065Z,1007.79
2017-11-19T11:30:13.991Z,1007.52
2017-11-19T11:31:13.907Z,1007.78
2017-11-19T11:32:13.830Z,1008.31
2017-11-19T11:33:13.767Z,1008.17
2017-11-19T11:34:13.679Z,1010.35
2017-11-19T11:35:13.586Z,1007.85
2017-11-19T11:36:13.509Z,1007.65
2017-11-19T11:37:13.428Z,1007.97
2017-11-19T11:38:13.394Z,1009.05
2017-11-19T11:39:13.259Z,1011.76
2017-11-19T11:40:13.173Z,1012.17
2017-11-19T11:41:13.099Z,1013.80
2017-11-19T11:42:13.017Z,1014.37
2017-11-19T11:43:12.936Z,1011.08
2017-11-19T11:44:12.895Z,1009.22
2017-11-19T11:45:12.787Z,1011.86
2017-11-19T11:46:12.692Z,1009.82
2017-11-19T11:47:12.641Z,1007.46
2017-11-19T11:48:12.596Z,1007.32
2017-11-19T11:49:12.453Z,1007.31
2017-11-19T11:50:12.359Z,1007.34
2017-11-19T11:51:12.297Z,1007.44
2017-11-19T11:52:12.197Z,1007.41
2017-11-19T11:53:12.115Z,1007.32
2017-11-19T11:54:12.036Z,1007.29
2017-11-19T11:55:11.948Z,1007.20
2017-11-19T11:56:11.865Z,1007.20
2017-11-19T11:57:11.786Z,1007.14
2017-11-19T11:58:11.853Z,1007.14
2017-11-19T11:59:11.640Z,1007.11
2017-11-19T12:00:11.542Z,1007.06
2017-11-19T12:01:11.453Z,1006.97
2017-11-19T12:02:11.373Z,1006.99
2017-11-19T12:03:11.297Z,1007.03
2017-11-19T12:04:11.200Z,1007.03